Time;durP1;ratioP1;P1;durP2;ratioP2;P2;SDS_P1;SDS_P2;PMS_P1;PMS_P2;Temp;Humidity;BMP_temperature;BMP_pressure;BME280_temperature;BME280_humidity;BME280_pressure;Samples;Min_cycle;Max_cycle;Signal;HPM_P1;HPM_P2
2023/01/15 00:00:12;;;;;;;10.88;5.18;;;;;;;4.57;100.00;100442.31;6233405;28;20144;-79
2023/01/15 00:03:13;;;;;;;8.20;3.83;;;;;;;4.56;100.00;100456.97;6233192;28;20057;-79
2023/01/15 00:06:15;;;;;;;16.38;6.03;;;;;;;4.55;100.00;100444.94;6249523;28;20041;-79
2023/01/15 00:09:17;;;;;;;13.38;4.68;;;;;;;4.44;100.00;100444.41;6232290;28;20061;-78
2023/01/15 00:12:18;;;;;;;8.17;4.93;;;;;;;4.53;100.00;100443.28;6249637;28;20049;-79
2023/01/15 00:15:21;;;;;;;11.45;5.72;;;;;;;4.49;100.00;100450.31;6249402;28;20282;-79
2023/01/15 00:18:24;;;;;;;13.93;5.60;;;;;;;4.58;100.00;100460.34;6249398;28;20393;-83
2023/01/15 00:21:27;;;;;;;14.38;3.92;;;;;;;4.57;100.00;100456.09;6250120;28;20133;-79
2023/01/15 00:27:47;;;;;;;10.57;5.03;;;;;;;4.48;100.00;100463.25;6250260;28;20042;-83
2023/01/15 00:30:49;;;;;;;11.20;5.70;;;;;;;4.46;100.00;100463.31;6249098;28;20131;-83
2023/01/15 00:33:49;;;;;;;9.65;4.45;;;;;;;4.43;100.00;100450.47;6248959;28;20042;-83
2023/01/15 00:36:53;;;;;;;9.55;4.80;;;;;;;4.42;100.00;100459.94;6250004;28;20069;-83
2023/01/15 00:39:56;;;;;;;9.45;4.97;;;;;;;4.30;100.00;100472.38;6251835;28;20041;-82
2023/01/15 00:42:57;;;;;;;13.93;5.22;;;;;;;4.28;100.00;100456.06;6271525;28;20049;-78
2023/01/15 00:45:57;;;;;;;8.98;5.20;;;;;;;4.22;100.00;100460.53;6256528;28;20049;-83
2023/01/15 00:49:00;;;;;;;15.73;5.30;;;;;;;4.29;100.00;100450.88;6273654;28;20120;-82
2023/01/15 00:52:02;;;;;;;8.63;4.38;;;;;;;4.24;100.00;100450.16;6289662;28;20136;-82
2023/01/15 00:55:03;;;;;;;10.65;6.05;;;;;;;4.17;100.00;100441.72;6272520;28;20041;-82
2023/01/15 00:58:04;;;;;;;11.50;6.15;;;;;;;4.01;100.00;100440.47;6273169;28;20124;-82
2023/01/15 01:01:05;;;;;;;9.40;4.90;;;;;;;4.22;100.00;100450.22;6265754;28;20050;-82
2023/01/15 01:04:06;;;;;;;10.55;5.10;;;;;;;4.14;100.00;100435.78;6249500;28;20129;-82
2023/01/15 01:07:07;;;;;;;12.73;5.43;;;;;;;4.18;100.00;100433.09;6249273;28;20068;-82
2023/01/15 01:10:09;;;;;;;6.75;3.85;;;;;;;4.19;100.00;100426.19;6240044;28;20048;-79
2023/01/15 01:13:11;;;;;;;11.40;4.78;;;;;;;4.28;100.00;100427.66;6272679;28;20037;-79
2023/01/15 01:16:32;;;;;;;14.60;5.77;;;;;;;4.06;100.00;100428.28;6274029;28;20045;-82
2023/01/15 01:19:33;;;;;;;10.43;4.25;;;;;;;4.04;100.00;100419.75;6255854;28;20053;-78
2023/01/15 01:22:34;;;;;;;9.48;4.40;;;;;;;4.00;100.00;100411.22;6271218;28;20413;-78
2023/01/15 01:25:35;;;;;;;13.45;4.32;;;;;;;4.04;100.00;100404.25;6271483;28;20075;-78
2023/01/15 01:28:36;;;;;;;14.65;4.20;;;;;;;3.93;100.00;100417.47;6273620;28;20489;-78
2023/01/15 01:31:37;;;;;;;7.18;4.30;;;;;;;3.96;100.00;100417.38;6255630;28;20075;-82
2023/01/15 01:34:37;;;;;;;7.47;4.40;;;;;;;3.77;100.00;100396.38;6272341;28;20045;-79
2023/01/15 01:37:38;;;;;;;6.50;3.15;;;;;;;3.71;100.00;100401.72;6267564;28;20056;-78
2023/01/15 01:40:41;;;;;;;3.05;2.25;;;;;;;3.84;100.00;100397.88;6273117;28;20040;-78
2023/01/15 01:44:01;;;;;;;9.20;5.13;;;;;;;3.84;100.00;100394.47;6273217;28;20045;-78
2023/01/15 01:47:09;;;;;;;7.35;3.42;;;;;;;3.81;100.00;100389.41;6272109;28;20119;-79
2023/01/15 01:50:12;;;;;;;7.40;2.72;;;;;;;3.88;100.00;100390.91;6272068;28;20512;-82
2023/01/15 01:53:28;;;;;;;8.20;3.17;;;;;;;3.91;100.00;100388.25;6273006;28;20044;-83
2023/01/15 01:56:33;;;;;;;6.57;3.67;;;;;;;3.86;100.00;100399.59;6271606;28;20489;-82
2023/01/15 01:59:36;;;;;;;17.35;3.15;;;;;;;3.72;100.00;100389.66;6258920;28;20092;-82
2023/01/15 02:02:38;;;;;;;7.22;3.47;;;;;;;3.79;100.00;100401.50;6264052;28;20065;-82
2023/01/15 02:05:42;;;;;;;5.75;3.85;;;;;;;3.88;100.00;100400.41;6254786;28;20083;-82
2023/01/15 02:08:43;;;;;;;7.03;4.45;;;;;;;3.94;100.00;100405.41;6272647;28;20409;-82
2023/01/15 02:11:46;;;;;;;6.55;3.67;;;;;;;3.84;100.00;100397.88;6271219;28;20045;-82
2023/01/15 02:15:05;;;;;;;7.18;4.95;;;;;;;3.92;100.00;100408.00;6271382;28;20049;-79
2023/01/15 02:18:22;;;;;;;6.72;3.75;;;;;;;3.89;100.00;100405.53;6271403;28;20128;-78
2023/01/15 02:21:55;;;;;;;15.73;5.07;;;;;;;3.72;100.00;100380.16;6271090;28;20409;-79
2023/01/15 02:25:32;;;;;;;10.23;4.50;;;;;;;3.96;100.00;100394.13;6267232;28;20057;-78
2023/01/15 02:28:37;;;;;;;12.90;2.83;;;;;;;3.89;100.00;100399.50;6270890;28;20053;-82
2023/01/15 02:31:42;;;;;;;13.57;5.15;;;;;;;3.71;100.00;100380.22;6271910;28;20083;-78
2023/01/15 02:34:51;;;;;;;5.95;3.28;;;;;;;3.89;100.00;100394.34;6270404;28;20037;-82
2023/01/15 02:37:58;;;;;;;7.78;3.95;;;;;;;3.91;100.00;100390.84;6271593;28;20162;-83
2023/01/15 02:41:04;;;;;;;7.90;4.30;;;;;;;3.94;100.00;100385.56;6270782;28;20093;-82
2023/01/15 02:44:07;;;;;;;7.93;3.83;;;;;;;3.99;100.00;100390.59;6271949;28;20408;-82
2023/01/15 02:47:10;;;;;;;15.43;5.15;;;;;;;3.99;100.00;100386.28;6270907;28;20120;-82
2023/01/15 02:50:14;;;;;;;16.20;5.13;;;;;;;3.86;100.00;100382.38;6271579;28;20037;-82
2023/01/15 02:53:25;;;;;;;9.43;3.50;;;;;;;3.90;100.00;100365.91;6271925;28;20739;-82
2023/01/15 02:56:31;;;;;;;11.88;4.47;;;;;;;3.98;100.00;100371.69;6270870;28;20472;-82
2023/01/15 02:59:42;;;;;;;12.63;5.57;;;;;;;3.90;100.00;100371.06;6272188;28;20037;-82
2023/01/15 03:03:02;;;;;;;11.00;3.72;;;;;;;3.95;100.00;100376.94;6272076;28;20116;-78
2023/01/15 03:06:43;;;;;;;9.93;3.38;;;;;;;3.97;100.00;100375.16;6270149;28;20061;-78
2023/01/15 03:09:45;;;;;;;6.78;3.75;;;;;;;3.92;100.00;100368.44;6270400;28;20055;-78
2023/01/15 03:13:01;;;;;;;9.60;4.15;;;;;;;3.92;100.00;100356.38;6271792;28;20049;-82
2023/01/15 03:20:05;;;;;;;13.70;4.40;;;;;;;3.95;100.00;100366.59;6271259;28;20390;-83
2023/01/15 03:23:10;;;;;;;6.32;4.15;;;;;;;3.88;100.00;100354.78;6263023;28;20398;-82
2023/01/15 03:26:11;;;;;;;10.15;4.82;;;;;;;3.91;100.00;100359.88;6270560;28;20047;-82
2023/01/15 03:29:15;;;;;;;6.53;3.78;;;;;;;3.95;100.00;100352.84;6270314;28;20041;-82
2023/01/15 03:32:18;;;;;;;8.23;5.10;;;;;;;4.01;100.00;100347.50;6272434;28;20162;-82
2023/01/15 03:35:47;;;;;;;6.93;3.75;;;;;;;4.01;100.00;100358.69;6275206;28;20048;-79
2023/01/15 03:38:49;;;;;;;5.85;3.60;;;;;;;4.02;100.00;100354.38;6274971;28;20120;-79
2023/01/15 03:41:58;;;;;;;11.85;4.78;;;;;;;4.04;100.00;100340.53;6275159;28;20041;-83
2023/01/15 03:45:18;;;;;;;13.07;3.38;;;;;;;4.09;100.00;100331.81;6274876;28;20052;-83
2023/01/15 03:48:38;;;;;;;4.93;3.15;;;;;;;4.02;100.00;100333.72;6274654;28;20091;-83
2023/01/15 03:51:53;;;;;;;9.25;4.65;;;;;;;4.07;100.00;100341.31;6266388;28;20515;-82
2023/01/15 03:55:09;;;;;;;11.68;4.47;;;;;;;4.02;100.00;100329.41;6263725;28;20098;-82
2023/01/15 03:58:28;;;;;;;9.32;3.75;;;;;;;4.10;100.00;100329.19;6275371;28;20408;-83
2023/01/15 04:01:40;;;;;;;6.82;4.40;;;;;;;4.11;100.00;100323.09;6274363;28;20040;-83
2023/01/15 04:04:43;;;;;;;12.65;5.07;;;;;;;4.07;100.00;100318.09;6275294;28;20084;-79
2023/01/15 04:07:47;;;;;;;10.60;4.75;;;;;;;4.04;100.00;100309.53;6274053;28;20045;-79
2023/01/15 04:10:57;;;;;;;8.65;4.75;;;;;;;3.97;100.00;100315.75;6273930;28;20120;-78
2023/01/15 04:14:03;;;;;;;9.30;4.20;;;;;;;3.96;100.00;100313.25;6274144;28;20060;-83
2023/01/15 04:17:04;;;;;;;13.15;5.15;;;;;;;4.01;100.00;100314.78;6272435;28;20028;-83
2023/01/15 04:20:06;;;;;;;11.77;5.68;;;;;;;3.94;100.00;100318.44;6272501;28;20496;-82
2023/01/15 04:23:07;;;;;;;;;;;;;;;3.93;100.00;100309.03;6275059;28;20041;-78
2023/01/15 04:26:08;;;;;;;15.93;4.63;;;;;;;3.95;100.00;100303.78;6273693;28;19920;-79
2023/01/15 04:29:09;;;;;;;7.18;4.20;;;;;;;3.94;100.00;100302.13;6274971;28;20037;-82
2023/01/15 04:32:10;;;;;;;9.02;4.22;;;;;;;3.91;100.00;100299.63;6274377;28;20041;-82
2023/01/15 04:35:11;;;;;;;9.80;4.32;;;;;;;3.92;100.00;100301.31;6272951;28;20083;-82
2023/01/15 04:38:12;;;;;;;7.68;4.43;;;;;;;3.95;100.00;100312.38;6274430;28;20111;-82
2023/01/15 04:44:34;;;;;;;17.75;5.60;;;;;;;3.82;100.00;100300.75;6269424;28;20168;-82
2023/01/15 04:47:34;;;;;;;;;;;;;;;3.91;100.00;100313.38;6257160;28;20041;-82
2023/01/15 04:50:35;;;;;;;8.35;3.70;;;;;;;3.91;100.00;100312.53;6274200;28;19977;-78
2023/01/15 04:53:36;;;;;;;6.78;3.63;;;;;;;3.83;100.00;100313.59;6272017;28;20037;-78
2023/01/15 04:56:45;;;;;;;11.63;4.63;;;;;;;3.85;100.00;100303.25;6272653;28;20144;-79
2023/01/15 04:59:46;;;;;;;10.55;3.03;;;;;;;3.79;100.00;100293.94;6272855;28;20061;-79
2023/01/15 05:02:49;;;;;;;6.35;4.07;;;;;;;3.89;100.00;100296.22;6273673;28;20552;-79
2023/01/15 05:05:50;;;;;;;10.20;5.78;;;;;;;4.00;100.00;100291.63;6272745;28;20044;-78
2023/01/15 05:08:52;;;;;;;11.85;4.63;;;;;;;3.94;100.00;100297.78;6271619;28;20040;-78
2023/01/15 05:11:52;;;;;;;16.40;5.78;;;;;;;3.88;100.00;100297.13;6273224;28;20459;-78
2023/01/15 05:14:53;;;;;;;7.10;3.80;;;;;;;3.90;100.00;100293.63;6272805;28;20048;-78
2023/01/15 05:17:55;;;;;;;11.15;4.10;;;;;;;3.82;100.00;100299.00;6274173;28;20465;-78
2023/01/15 05:20:56;;;;;;;9.57;4.10;;;;;;;3.87;100.00;100287.69;6271930;28;20083;-78
2023/01/15 05:23:59;;;;;;;10.57;3.75;;;;;;;3.84;100.00;100289.47;6273793;28;20519;-78
2023/01/15 05:27:00;;;;;;;15.55;4.95;;;;;;;3.77;100.00;100284.56;6271461;28;20071;-78
2023/01/15 05:30:05;;;;;;;8.73;4.63;;;;;;;3.79;100.00;100293.94;6256449;28;20385;-79
2023/01/15 05:33:07;;;;;;;11.05;5.10;;;;;;;3.75;100.00;100274.28;6260126;28;20391;-78
2023/01/15 05:36:11;;;;;;;15.25;4.07;;;;;;;3.97;100.00;100286.53;6265948;28;20485;-82
2023/01/15 05:39:14;;;;;;;10.15;4.70;;;;;;;3.87;100.00;100287.69;6271184;28;20041;-82
2023/01/15 05:42:15;;;;;;;6.72;3.05;;;;;;;3.84;100.00;100286.88;6271696;28;20041;-83
2023/01/15 05:45:16;;;;;;;18.60;5.25;;;;;;;3.81;100.00;100278.41;6273278;28;20045;-79
2023/01/15 05:48:17;;;;;;;5.60;3.67;;;;;;;3.77;100.00;100280.22;6273046;28;20245;-79
2023/01/15 05:51:18;;;;;;;6.22;3.72;;;;;;;3.76;100.00;100288.84;6255329;28;20118;-83
2023/01/15 05:54:22;;;;;;;11.02;4.10;;;;;;;3.88;100.00;100284.22;6272670;28;20501;-83
2023/01/15 05:57:23;;;;;;;20.60;4.93;;;;;;;3.89;100.00;100283.31;6272859;28;20120;-83
2023/01/15 06:00:25;;;;;;;;;;;;;;;4.02;100.00;100287.25;6273135;28;20446;-78
2023/01/15 06:03:26;;;;;;;8.25;4.40;;;;;;;3.92;100.00;100275.50;6272950;28;19921;-79
2023/01/15 06:06:27;;;;;;;5.25;2.78;;;;;;;3.83;100.00;100267.13;6271773;28;20037;-78
2023/01/15 06:09:30;;;;;;;11.80;4.30;;;;;;;3.80;100.00;100261.22;6272781;28;20044;-79
2023/01/15 06:12:31;;;;;;;5.43;3.38;;;;;;;3.83;100.00;100261.97;6272475;28;20045;-83
2023/01/15 06:15:40;;;;;;;5.75;3.40;;;;;;;3.83;100.00;100277.47;6271404;28;20065;-83
2023/01/15 06:18:41;;;;;;;11.20;4.43;;;;;;;3.84;100.00;100268.81;6273051;28;20041;-78
2023/01/15 06:21:42;;;;;;;10.15;3.92;;;;;;;3.93;100.00;100267.72;6271190;28;20083;-82
2023/01/15 06:24:43;;;;;;;13.43;3.92;;;;;;;3.88;100.00;100267.00;6270555;28;20076;-83
2023/01/15 06:27:44;;;;;;;6.80;3.63;;;;;;;3.84;100.00;100258.50;6253611;28;20430;-82
2023/01/15 06:30:45;;;;;;;8.18;4.65;;;;;;;3.97;100.00;100258.13;6266403;28;20519;-78
2023/01/15 06:33:49;;;;;;;5.55;3.42;;;;;;;3.83;100.00;100249.06;6262908;28;20056;-79
2023/01/15 06:36:50;;;;;;;19.50;5.75;;;;;;;3.90;100.00;100259.22;6247506;28;20120;-78
2023/01/15 06:39:50;;;;;;;7.97;4.68;;;;;;;3.88;100.00;100258.41;6247835;28;20042;-78
2023/01/15 06:49:34;;;;;;;12.27;6.25;;;;;;;3.95;100.00;100260.75;6270660;28;20160;-82
2023/01/15 06:52:37;;;;;;;8.23;4.97;;;;;;;3.85;100.00;100256.78;6270774;28;20055;-83
2023/01/15 06:55:39;;;;;;;9.07;5.13;;;;;;;3.78;100.00;100253.50;6272007;28;20045;-82
2023/01/15 06:58:41;;;;;;;5.43;3.35;;;;;;;3.99;100.00;100253.75;6271805;28;20048;-82
2023/01/15 07:01:44;;;;;;;6.65;3.45;;;;;;;3.92;100.00;100254.84;6270570;28;20063;-83
2023/01/15 07:04:46;;;;;;;9.00;4.22;;;;;;;3.88;100.00;100258.41;6304121;28;20056;-79
2023/01/15 07:07:47;;;;;;;10.10;4.00;;;;;;;3.95;100.00;100262.50;6274002;28;20037;-79
2023/01/15 07:10:48;;;;;;;11.80;4.55;;;;;;;3.84;100.00;100263.66;6275789;28;20281;-79
2023/01/15 07:13:49;;;;;;;3.50;2.53;;;;;;;3.92;100.00;100258.28;6276776;28;20504;-79
2023/01/15 07:16:50;;;;;;;7.85;3.70;;;;;;;3.94;100.00;100261.66;6275680;28;20044;-79
2023/01/15 07:19:51;;;;;;;4.95;3.33;;;;;;;3.90;100.00;100264.38;6276844;28;20489;-79
2023/01/15 07:22:52;;;;;;;7.25;3.33;;;;;;;3.98;100.00;100262.41;6258106;28;20107;-78
2023/01/15 07:25:56;;;;;;;12.75;4.88;;;;;;;3.98;100.00;100257.25;6267306;28;20121;-79
2023/01/15 07:28:57;;;;;;;5.97;3.30;;;;;;;3.85;100.00;100249.03;6250744;28;20155;-79
2023/01/15 07:31:58;;;;;;;6.80;3.47;;;;;;;4.01;100.00;100254.56;6266915;28;20053;-83
2023/01/15 07:35:01;;;;;;;7.60;4.00;;;;;;;4.01;100.00;100255.41;6250539;28;20112;-83
2023/01/15 07:38:04;;;;;;;6.20;3.40;;;;;;;4.15;100.00;100254.97;6250503;28;20045;-79
2023/01/15 07:51:05;;;;;;;5.82;2.50;;;;;;;4.30;100.00;100239.88;6250745;28;20512;-79
2023/01/15 07:54:05;;;;;;;8.77;4.20;;;;;;;4.26;100.00;100235.72;6248667;28;20046;-79
2023/01/15 07:57:07;;;;;;;7.65;3.17;;;;;;;4.32;100.00;100227.75;6273031;28;20147;-78
2023/01/15 08:00:19;;;;;;;6.43;3.55;;;;;;;4.26;100.00;100221.06;6274393;28;20065;-78
2023/01/15 08:03:21;;;;;;;5.80;3.78;;;;;;;4.45;100.00;100216.16;6273200;28;20068;-78
2023/01/15 08:06:22;;;;;;;4.47;3.05;;;;;;;4.36;100.00;100211.28;6273104;28;20044;-78
2023/01/15 08:09:24;;;;;;;9.15;4.05;;;;;;;4.49;100.00;100216.88;6272281;28;20064;-85
2023/01/15 08:15:44;;;;;;;7.45;4.20;;;;;;;4.51;100.00;100205.59;6248158;28;20049;-78
2023/01/15 08:18:45;;;;;;;12.77;3.67;;;;;;;4.45;100.00;100213.56;6256869;28;20033;-85
2023/01/15 08:21:46;;;;;;;11.45;4.78;;;;;;;4.46;100.00;100211.81;6265465;28;20057;-85
2023/01/15 08:24:48;;;;;;;8.43;4.25;;;;;;;4.61;100.00;100219.91;6274083;28;20110;-78
2023/01/15 08:27:51;;;;;;;15.43;5.00;;;;;;;4.49;100.00;100209.97;6273987;28;20052;-85
2023/01/15 08:30:57;;;;;;;6.40;3.67;;;;;;;4.51;100.00;100215.06;6273849;28;20053;-78
2023/01/15 08:33:58;;;;;;;7.65;3.50;;;;;;;4.39;100.00;100199.09;6260658;28;20045;-85
2023/01/15 08:36:59;;;;;;;7.28;3.25;;;;;;;4.44;100.00;100202.38;6280813;28;20116;-85
2023/01/15 08:40:00;;;;;;;7.55;3.38;;;;;;;4.49;100.00;100206.53;6254043;28;20057;-86
2023/01/15 08:43:04;;;;;;;10.48;4.95;;;;;;;4.50;100.00;100195.31;6255591;28;20049;-85
2023/01/15 08:46:05;;;;;;;7.38;2.92;;;;;;;4.39;100.00;100204.28;6272259;28;20041;-85
2023/01/15 08:49:09;;;;;;;7.47;4.20;;;;;;;4.39;100.00;100201.69;6270526;28;20060;-85
2023/01/15 08:52:09;;;;;;;3.80;2.53;;;;;;;4.49;100.00;100199.66;6283538;28;20493;-86
2023/01/15 08:55:10;;;;;;;5.03;2.67;;;;;;;4.53;100.00;100193.47;6261461;28;20067;-79
2023/01/15 08:58:32;;;;;;;10.40;5.50;;;;;;;4.62;100.00;100185.41;6270633;28;20496;-78
2023/01/15 09:01:52;;;;;;;13.52;6.50;;;;;;;4.70;100.00;100187.72;6265043;28;20056;-78
2023/01/15 09:04:53;;;;;;;14.52;5.38;;;;;;;4.75;100.00;100178.06;6265489;28;20045;-78
2023/01/15 09:07:54;;;;;;;5.80;4.03;;;;;;;4.72;100.00;100179.94;6265303;28;20113;-85
2023/01/15 09:10:57;;;;;;;9.85;4.05;;;;;;;4.83;100.00;100186.38;6266838;28;20037;-85
2023/01/15 09:13:58;;;;;;;8.60;5.07;;;;;;;4.81;100.00;100177.00;6270782;28;20451;-85
2023/01/15 09:16:59;;;;;;;7.95;2.88;;;;;;;4.77;100.00;100173.69;6268568;28;20470;-86
2023/01/15 09:20:01;;;;;;;13.63;4.97;;;;;;;4.95;100.00;100163.59;6269457;28;20060;-86
2023/01/15 09:23:02;;;;;;;10.50;4.90;;;;;;;4.93;100.00;100162.81;6259770;28;20050;-86
2023/01/15 09:26:08;;;;;;;8.90;4.35;;;;;;;5.04;100.00;100164.13;6260617;28;20048;-86
2023/01/15 09:29:09;;;;;;;11.00;5.57;;;;;;;4.99;100.00;100158.25;6269008;28;20047;-86
2023/01/15 09:32:10;;;;;;;13.80;6.47;;;;;;;5.07;100.00;100144.22;6262044;28;20045;-86
2023/01/15 09:35:11;;;;;;;11.20;5.10;;;;;;;5.12;100.00;100134.53;6264260;28;20037;-86
2023/01/15 09:38:14;;;;;;;5.78;3.38;;;;;;;5.32;100.00;100137.22;6286831;28;20132;-85
2023/01/15 09:44:35;;;;;;;6.43;3.17;;;;;;;5.13;100.00;100144.00;6247290;28;20045;-86
2023/01/15 09:47:46;;;;;;;4.88;3.15;;;;;;;5.01;100.00;100147.84;6247245;28;20053;-79
2023/01/15 09:51:19;;;;;;;7.88;4.55;;;;;;;4.83;100.00;100154.53;6247357;28;20505;-79
2023/01/15 09:54:32;;;;;;;7.68;4.20;;;;;;;4.87;100.00;100138.00;6263146;28;20052;-79
2023/01/15 09:57:35;;;;;;;11.77;3.65;;;;;;;4.85;100.00;100132.88;6261318;28;20044;-79
2023/01/15 10:00:44;;;;;;;6.05;3.30;;;;;;;4.91;100.00;100125.81;6290892;28;20041;-79
2023/01/15 10:04:02;;;;;;;10.30;4.88;;;;;;;4.97;100.00;100118.66;6232279;28;20069;-86
2023/01/15 10:07:49;;;;;;;5.30;3.60;;;;;;;5.21;100.00;100104.00;6245497;28;20053;-80
2023/01/15 10:10:55;;;;;;;2.38;1.48;;;;;;;5.22;100.00;100095.31;6237576;28;20059;-79
2023/01/15 10:14:05;;;;;;;5.53;3.78;;;;;;;5.33;100.00;100099.22;6245537;28;20041;-79
2023/01/15 10:17:17;;;;;;;7.40;4.70;;;;;;;5.24;100.00;100080.56;6245613;28;20037;-79
2023/01/15 10:20:47;;;;;;;10.60;5.15;;;;;;;5.40;100.00;100072.22;6246320;28;20253;-79
2023/01/15 10:23:56;;;;;;;9.98;5.07;;;;;;;5.53;100.00;100057.06;6230939;28;20088;-87
2023/01/15 10:26:58;;;;;;;5.22;3.42;;;;;;;5.42;100.00;100055.72;6247317;28;20037;-79
2023/01/15 10:30:11;;;;;;;10.40;4.10;;;;;;;5.51;100.00;100051.94;6301080;28;20140;-79
2023/01/15 10:33:42;;;;;;;5.95;3.83;;;;;;;5.68;100.00;100040.06;6266020;28;20044;-79
2023/01/15 10:37:02;;;;;;;9.20;3.22;;;;;;;5.59;100.00;100023.16;6260163;28;20044;-86
2023/01/15 10:40:24;;;;;;;6.95;4.07;;;;;;;5.81;100.00;100030.88;6255202;28;20456;-80
2023/01/15 10:43:41;;;;;;;8.65;4.60;;;;;;;5.87;100.00;100022.88;6263978;28;20041;-79
2023/01/15 10:46:48;;;;;;;8.07;4.22;;;;;;;5.86;100.00;100021.16;6252073;28;20600;-79
2023/01/15 10:49:50;;;;;;;6.00;3.10;;;;;;;5.87;100.00;100012.50;6267336;28;20044;-86
2023/01/15 10:53:19;;;;;;;3.47;2.33;;;;;;;5.77;100.00;100014.63;6259182;28;20049;-86
2023/01/15 10:56:28;;;;;;;7.35;3.55;;;;;;;5.83;100.00;100011.78;6248065;28;20056;-86
2023/01/15 10:59:34;;;;;;;5.75;2.63;;;;;;;5.81;100.00;100007.59;6266751;28;20044;-80
2023/01/15 11:02:49;;;;;;;3.85;2.80;;;;;;;5.71;100.00;100004.53;6256939;28;20067;-86
2023/01/15 11:05:50;;;;;;;5.53;2.17;;;;;;;5.74;100.00;99983.69;6256788;28;20056;-86
2023/01/15 11:08:53;;;;;;;6.32;4.05;;;;;;;5.74;100.00;99975.06;6267990;28;20033;-86
2023/01/15 11:22:17;;;;;;;6.65;3.90;;;;;;;6.43;98.17;99979.88;6259745;28;20421;-87
2023/01/15 11:25:30;;;;;;;5.95;3.47;;;;;;;6.52;96.79;99976.03;6252144;28;20136;-85
2023/01/15 11:28:41;;;;;;;9.32;4.20;;;;;;;6.47;96.42;99973.66;6266996;28;20041;-87
2023/01/15 11:31:42;;;;;;;9.00;3.83;;;;;;;6.42;97.26;99979.03;6260664;28;20045;-87
2023/01/15 11:34:58;;;;;;;9.23;3.83;;;;;;;6.42;97.26;99973.88;6257101;28;20045;-86
2023/01/15 11:38:11;;;;;;;7.25;4.13;;;;;;;6.47;96.97;99973.66;6257362;28;20045;-85
2023/01/15 11:41:22;;;;;;;7.05;3.28;;;;;;;6.26;98.81;99975.47;6258160;28;20037;-85
2023/01/15 11:51:17;;;;;;;5.82;2.92;;;;;;;6.34;99.54;99949.19;6268003;28;20542;-86
2023/01/15 11:54:17;;;;;;;8.88;3.20;;;;;;;6.42;98.98;99947.94;6255674;28;20053;-86
2023/01/15 11:57:37;;;;;;;6.53;3.97;;;;;;;6.63;99.28;99947.84;6273670;28;20051;-87
2023/01/15 12:00:44;;;;;;;7.70;3.80;;;;;;;6.45;99.54;99940.00;6274561;28;20045;-87
2023/01/15 12:03:45;;;;;;;10.73;3.78;;;;;;;6.38;99.37;99923.06;6274251;28;20044;-80
2023/01/15 12:06:46;;;;;;;4.97;3.65;;;;;;;6.56;98.23;99933.50;6273313;28;20037;-80
2023/01/15 12:10:13;;;;;;;6.25;4.40;;;;;;;6.54;98.47;99932.72;6273240;28;20121;-80
2023/01/15 12:13:25;;;;;;;5.28;2.92;;;;;;;6.47;96.77;99928.75;6267606;28;20425;-87
2023/01/15 12:16:45;;;;;;;3.65;2.92;;;;;;;6.45;97.05;99921.03;6274076;28;20041;-86
2023/01/15 12:19:58;;;;;;;9.80;5.05;;;;;;;6.55;96.93;99911.09;6272967;28;20626;-80
2023/01/15 12:23:38;;;;;;;8.82;4.47;;;;;;;6.52;96.33;99888.72;6272044;28;20048;-80
2023/01/15 12:27:08;;;;;;;8.60;3.50;;;;;;;6.59;95.40;99887.53;6249258;28;20124;-87
2023/01/15 12:30:12;;;;;;;5.45;3.13;;;;;;;6.69;94.90;99889.69;6231485;28;20140;-87
2023/01/15 12:33:25;;;;;;;7.65;4.32;;;;;;;6.72;95.55;99886.97;6248933;28;20108;-80
2023/01/15 12:36:29;;;;;;;5.43;3.22;;;;;;;6.71;95.57;99887.84;6231150;28;20061;-80
2023/01/15 12:39:37;;;;;;;8.48;4.28;;;;;;;6.63;96.60;99890.81;6247776;28;20049;-80
2023/01/15 12:46:00;;;;;;;6.35;3.78;;;;;;;6.69;94.57;99864.59;6248730;28;20460;-80
2023/01/15 12:49:32;;;;;;;9.20;3.83;;;;;;;6.84;95.17;99871.66;6248826;28;20417;-87
2023/01/15 12:52:38;;;;;;;;;;;;;;;6.92;93.86;99866.09;6247783;28;20069;-80
2023/01/15 12:55:47;;;;;;;5.93;3.88;;;;;;;7.03;94.99;99856.00;6230721;28;19925;-80
2023/01/15 12:59:06;;;;;;;6.63;4.13;;;;;;;7.03;94.64;99852.59;6249800;28;20119;-88
2023/01/15 13:02:22;;;;;;;6.95;3.83;;;;;;;6.98;94.87;99844.19;6269615;28;20124;-87
2023/01/15 13:05:48;;;;;;;7.47;4.38;;;;;;;6.93;94.07;99833.19;6257081;28;20045;-87
2023/01/15 13:09:05;;;;;;;7.00;4.72;;;;;;;6.95;94.86;99831.38;6268635;28;21041;-80
2023/01/15 13:12:17;;;;;;;8.65;4.35;;;;;;;6.98;95.54;99832.06;6269999;28;20049;-80
2023/01/15 13:15:25;;;;;;;7.70;5.38;;;;;;;7.01;95.39;99834.50;6272959;28;20048;-80
2023/01/15 13:18:38;;;;;;;10.95;5.50;;;;;;;6.93;95.39;99815.88;6271854;28;20049;-80
2023/01/15 13:21:42;;;;;;;9.02;4.78;;;;;;;7.14;95.00;99823.50;6271105;28;20057;-87
2023/01/15 13:25:02;;;;;;;11.07;4.72;;;;;;;7.02;94.67;99820.63;6272836;28;20420;-79
2023/01/15 13:28:21;;;;;;;5.40;3.00;;;;;;;6.98;95.66;99828.59;6255148;28;20053;-80
2023/01/15 13:31:37;;;;;;;10.43;3.83;;;;;;;6.95;96.09;99819.22;6271196;28;20049;-80
2023/01/15 13:34:49;;;;;;;6.40;3.92;;;;;;;6.92;97.02;99816.81;6271338;28;20037;-87
2023/01/15 13:37:53;;;;;;;12.07;3.92;;;;;;;6.92;97.05;99790.88;6271247;28;20068;-81
2023/01/15 13:40:56;;;;;;;6.75;4.03;;;;;;;6.88;98.38;99788.47;6269296;28;20052;-80
2023/01/15 13:43:59;;;;;;;;;;;;;;;6.83;96.63;99786.13;6253321;28;21346;-80
2023/01/15 13:47:10;;;;;;;6.78;3.40;;;;;;;6.84;96.15;99793.00;6258524;28;19921;-80
2023/01/15 13:50:16;;;;;;;10.90;3.50;;;;;;;6.91;95.33;99791.78;6232307;28;20053;-87
2023/01/15 13:53:44;;;;;;;8.90;3.80;;;;;;;6.73;95.29;99780.53;6240214;28;20454;-87
2023/01/15 13:56:45;;;;;;;11.63;4.70;;;;;;;6.76;94.79;99772.63;6244985;28;20064;-87
2023/01/15 13:59:48;;;;;;;6.30;3.38;;;;;;;6.65;95.08;99767.13;6252953;28;20398;-87
2023/01/15 14:02:54;;;;;;;7.28;3.95;;;;;;;6.79;95.42;99762.09;6254612;28;20441;-80
2023/01/15 14:05:59;;;;;;;10.10;5.30;;;;;;;6.73;95.51;99748.59;6254838;28;20041;-80
2023/01/15 14:09:00;;;;;;;16.70;6.88;;;;;;;6.78;96.03;99757.84;6229150;28;20480;-87
2023/01/15 14:12:26;;;;;;;10.43;4.88;;;;;;;6.77;96.39;99765.69;6245545;28;20111;-87
2023/01/15 14:16:01;;;;;;;11.40;5.85;;;;;;;6.64;96.72;99768.06;6246480;28;20508;-80
2023/01/15 14:19:22;;;;;;;14.30;5.18;;;;;;;6.73;96.50;99758.97;6245469;28;20049;-80
2023/01/15 14:22:26;;;;;;;9.00;5.47;;;;;;;6.75;97.23;99750.19;6269636;28;20053;-80
2023/01/15 14:26:04;;;;;;;12.75;5.60;;;;;;;6.64;96.61;99750.72;6271314;28;20072;-80
2023/01/15 14:29:42;;;;;;;9.77;4.07;;;;;;;6.69;96.44;99754.84;6269918;28;20049;-81
2023/01/15 14:32:48;;;;;;;6.72;4.10;;;;;;;6.68;96.00;99760.97;6271174;28;20041;-87
2023/01/15 14:35:50;;;;;;;8.40;4.65;;;;;;;6.62;96.93;99749.13;6270965;28;20052;-86
2023/01/15 14:38:59;;;;;;;12.75;4.45;;;;;;;6.48;97.59;99747.22;6269866;28;20386;-80
2023/01/15 14:45:35;;;;;;;8.73;4.15;;;;;;;6.46;98.10;99751.63;6302975;28;20083;-80
2023/01/15 14:48:40;;;;;;;15.00;5.72;;;;;;;6.48;98.47;99754.16;6270808;28;20071;-80
2023/01/15 14:51:49;;;;;;;8.98;4.80;;;;;;;6.42;99.21;99761.34;6269572;28;20040;-80
2023/01/15 14:54:52;;;;;;;8.05;4.35;;;;;;;6.38;100.00;99759.81;6252915;28;20052;-81
2023/01/15 14:58:04;;;;;;;7.45;4.88;;;;;;;6.44;99.85;99756.91;6302975;28;20064;-80
2023/01/15 15:01:23;;;;;;;8.27;4.43;;;;;;;6.41;100.00;99759.66;6269568;28;20045;-80
2023/01/15 15:04:43;;;;;;;5.35;3.05;;;;;;;6.37;100.00;99755.53;6269668;28;20397;-80
2023/01/15 15:07:51;;;;;;;7.95;3.40;;;;;;;6.36;100.00;99759.03;6252599;28;20424;-80
2023/01/15 15:10:56;;;;;;;9.73;4.35;;;;;;;6.38;100.00;99748.56;6269451;28;20070;-80
2023/01/15 15:13:59;;;;;;;8.30;4.35;;;;;;;6.22;100.00;99732.97;6252604;28;20053;-80
2023/01/15 15:17:10;;;;;;;7.70;3.85;;;;;;;6.18;100.00;99734.00;6252757;28;20072;-80
2023/01/15 15:20:46;;;;;;;7.32;3.65;;;;;;;6.19;100.00;99738.28;6269113;28;20060;-80
2023/01/15 15:24:14;;;;;;;8.35;4.43;;;;;;;6.11;100.00;99735.22;6264346;28;20094;-80
2023/01/15 15:27:22;;;;;;;10.15;4.70;;;;;;;6.15;100.00;99744.50;6246100;28;20479;-80
2023/01/15 15:30:22;;;;;;;15.82;5.32;;;;;;;6.13;100.00;99733.38;6250670;28;20046;-80